Time;durP1;ratioP1;P1;durP2;ratioP2;P2;SDS_P1;SDS_P2;PMS_P1;PMS_P2;Temp;Humidity;BMP_temperature;BMP_pressure;BME280_temperature;BME280_humidity;BME280_pressure;Samples;Min_cycle;Max_cycle;Signal;HPM_P1;HPM_P2
2022/07/01 00:01:24;;;;;;;0.10;0.10;;;;;;;;;;5052063;28;20060;-82
2022/07/01 00:03:50;;;;;;;0.10;0.10;;;;;;;;;;5052549;28;20052;-81
2022/07/01 00:06:20;;;;;;;0.10;0.10;;;;;;;;;;5052230;28;20032;-79
2022/07/01 00:08:46;;;;;;;0.10;0.10;;;;;;;;;;5052065;28;20033;-81
2022/07/01 00:11:12;;;;;;;0.05;0.05;;;;;;;;;;5052133;28;20131;-82
2022/07/01 00:13:38;;;;;;;0.10;0.10;;;;;;;;;;5049623;28;20033;-82
2022/07/01 00:16:04;;;;;;;0.10;0.10;;;;;;;;;;5051949;28;20493;-81
2022/07/01 00:18:31;;;;;;;0.10;0.10;;;;;;;;;;5051745;28;20493;-81
2022/07/01 00:20:57;;;;;;;0.10;0.10;;;;;;;;;;5051996;28;20469;-80
2022/07/01 00:23:23;;;;;;;0.10;0.10;;;;;;;;;;5051631;28;20469;-78
2022/07/01 00:25:49;;;;;;;0.10;0.10;;;;;;;;;;5052232;28;20362;-81
2022/07/01 00:28:15;;;;;;;0.10;0.10;;;;;;;;;;5051833;28;20435;-81
2022/07/01 00:30:41;;;;;;;0.00;0.00;;;;;;;;;;5051614;28;20125;-82
2022/07/01 00:33:07;;;;;;;0.10;0.10;;;;;;;;;;5051588;28;20466;-80
2022/07/01 00:35:33;;;;;;;0.10;0.10;;;;;;;;;;5051447;28;20393;-81
2022/07/01 00:37:59;;;;;;;0.10;0.10;;;;;;;;;;5051655;28;20029;-81
2022/07/01 00:40:25;;;;;;;0.10;0.10;;;;;;;;;;5051488;28;20025;-81
2022/07/01 00:42:51;;;;;;;0.10;0.10;;;;;;;;;;5051934;28;20104;-81
2022/07/01 00:45:17;;;;;;;0.10;0.10;;;;;;;;;;5050591;28;20056;-82
2022/07/01 00:47:44;;;;;;;0.03;0.03;;;;;;;;;;5051238;28;20060;-83
2022/07/01 00:50:12;;;;;;;0.10;0.10;;;;;;;;;;5051611;28;20017;-83
2022/07/01 00:52:39;;;;;;;0.10;0.10;;;;;;;;;;5051359;28;20554;-84
2022/07/01 00:55:06;;;;;;;0.10;0.10;;;;;;;;;;5051462;28;20424;-84
2022/07/01 00:57:33;;;;;;;0.00;0.00;;;;;;;;;;5051219;28;20029;-83
2022/07/01 00:59:59;;;;;;;0.10;0.10;;;;;;;;;;5051425;28;20048;-84
2022/07/01 01:02:25;;;;;;;0.10;0.10;;;;;;;;;;5049818;28;20025;-81
2022/07/01 01:04:51;;;;;;;0.10;0.10;;;;;;;;;;5051621;28;20032;-82
2022/07/01 01:07:17;;;;;;;0.10;0.10;;;;;;;;;;5051676;28;20025;-81
2022/07/01 01:09:44;;;;;;;0.10;0.10;;;;;;;;;;5050916;28;20143;-81
2022/07/01 01:12:11;;;;;;;0.10;0.10;;;;;;;;;;5051001;28;20474;-82
2022/07/01 01:14:47;;;;;;;0.10;0.10;;;;;;;;;;5050835;28;20032;-83
2022/07/01 01:17:14;;;;;;;0.10;0.10;;;;;;;;;;5049734;28;20033;-82
2022/07/01 01:19:40;;;;;;;0.10;0.10;;;;;;;;;;5050855;28;20029;-81
2022/07/01 01:22:06;;;;;;;0.10;0.10;;;;;;;;;;5050975;28;20048;-81
2022/07/01 01:24:32;;;;;;;0.10;0.10;;;;;;;;;;5050678;28;20372;-81
2022/07/01 01:26:58;;;;;;;0.10;0.10;;;;;;;;;;5050875;28;20436;-82
2022/07/01 01:29:24;;;;;;;0.10;0.10;;;;;;;;;;5050770;28;20469;-82
2022/07/01 01:31:50;;;;;;;0.10;0.10;;;;;;;;;;5051323;28;20033;-82
2022/07/01 01:34:16;;;;;;;0.10;0.10;;;;;;;;;;5050931;28;20085;-82
2022/07/01 01:36:42;;;;;;;0.10;0.10;;;;;;;;;;5050741;28;20029;-82
2022/07/01 01:39:17;;;;;;;0.10;0.10;;;;;;;;;;5050915;28;20028;-82
2022/07/01 01:41:44;;;;;;;0.10;0.10;;;;;;;;;;5050644;28;20504;-82
2022/07/01 01:44:11;;;;;;;0.10;0.10;;;;;;;;;;5050819;28;20028;-83
2022/07/01 01:46:37;;;;;;;0.10;0.10;;;;;;;;;;5050483;28;20021;-82
2022/07/01 01:49:04;;;;;;;0.10;0.10;;;;;;;;;;5049480;28;20031;-81
2022/07/01 01:51:33;;;;;;;0.00;0.00;;;;;;;;;;5050730;28;20028;-82
2022/07/01 01:53:59;;;;;;;0.10;0.10;;;;;;;;;;5049379;28;20057;-82
2022/07/01 01:56:25;;;;;;;0.10;0.10;;;;;;;;;;5050523;28;20039;-81
2022/07/01 01:58:51;;;;;;;0.10;0.10;;;;;;;;;;5049681;28;20025;-81
2022/07/01 02:01:17;;;;;;;0.10;0.10;;;;;;;;;;5050769;28;20029;-81
2022/07/01 02:03:44;;;;;;;0.10;0.10;;;;;;;;;;5049006;28;20021;-81
2022/07/01 02:06:11;;;;;;;0.20;0.20;;;;;;;;;;5050540;28;20037;-81
2022/07/01 02:08:40;;;;;;;0.10;0.10;;;;;;;;;;5049040;28;20473;-80
2022/07/01 02:11:06;;;;;;;0.08;0.08;;;;;;;;;;5050577;28;20025;-81
2022/07/01 02:13:32;;;;;;;0.10;0.10;;;;;;;;;;5050127;28;20497;-80
2022/07/01 02:15:58;;;;;;;0.10;0.10;;;;;;;;;;5050576;28;20029;-81
2022/07/01 02:18:24;;;;;;;0.10;0.10;;;;;;;;;;5050361;28;20025;-81
2022/07/01 02:20:50;;;;;;;0.10;0.10;;;;;;;;;;5049567;28;20025;-82
2022/07/01 02:23:17;;;;;;;0.10;0.10;;;;;;;;;;5050439;28;20096;-82
2022/07/01 02:25:43;;;;;;;0.10;0.10;;;;;;;;;;5049060;28;20041;-83
2022/07/01 02:28:09;;;;;;;0.10;0.10;;;;;;;;;;5050487;28;20029;-82
2022/07/01 02:30:36;;;;;;;0.10;0.10;;;;;;;;;;5050211;28;20389;-82
2022/07/01 02:33:02;;;;;;;0.10;0.10;;;;;;;;;;5049022;28;20057;-83
2022/07/01 02:35:29;;;;;;;0.10;0.10;;;;;;;;;;5050200;28;20037;-82
2022/07/01 02:37:55;;;;;;;0.10;0.10;;;;;;;;;;5052169;28;20075;-82
2022/07/01 02:40:21;;;;;;;0.10;0.10;;;;;;;;;;5052967;28;20029;-83
2022/07/01 02:42:47;;;;;;;0.10;0.10;;;;;;;;;;5054181;28;20021;-81
2022/07/01 02:45:13;;;;;;;0.10;0.10;;;;;;;;;;5053836;28;20104;-81
2022/07/01 02:47:40;;;;;;;0.10;0.10;;;;;;;;;;5053477;28;20075;-81
2022/07/01 02:50:07;;;;;;;0.10;0.10;;;;;;;;;;5053664;28;20447;-81
2022/07/01 02:52:34;;;;;;;0.10;0.10;;;;;;;;;;5053394;28;20136;-81
2022/07/01 02:55:01;;;;;;;0.00;0.00;;;;;;;;;;5053461;28;20112;-82
2022/07/01 02:57:27;;;;;;;0.10;0.10;;;;;;;;;;5053339;28;20087;-81
2022/07/01 02:59:53;;;;;;;0.03;0.03;;;;;;;;;;5053595;28;20064;-81
2022/07/01 03:02:20;;;;;;;0.10;0.10;;;;;;;;;;5053711;28;20029;-82
2022/07/01 03:04:49;;;;;;;0.10;0.10;;;;;;;;;;5051866;28;20021;-82
2022/07/01 03:07:16;;;;;;;0.00;0.00;;;;;;;;;;5052144;28;20125;-82
2022/07/01 03:09:43;;;;;;;0.10;0.10;;;;;;;;;;5053134;28;20025;-83
2022/07/01 03:12:25;;;;;;;0.10;0.10;;;;;;;;;;5051854;28;20037;-81
2022/07/01 03:14:55;;;;;;;0.10;0.10;;;;;;;;;;5053538;28;20040;-81
2022/07/01 03:17:22;;;;;;;0.10;0.10;;;;;;;;;;5053470;28;20522;-83
2022/07/01 03:19:48;;;;;;;0.10;0.10;;;;;;;;;;5053403;28;20056;-81
2022/07/01 03:22:14;;;;;;;0.10;0.10;;;;;;;;;;5053230;28;20032;-84
2022/07/01 03:24:40;;;;;;;0.08;0.08;;;;;;;;;;5053297;28;20104;-83
2022/07/01 03:27:07;;;;;;;0.10;0.10;;;;;;;;;;5033950;28;20021;-82
2022/07/01 03:29:33;;;;;;;0.10;0.10;;;;;;;;;;5031842;28;20421;-83
2022/07/01 03:31:59;;;;;;;0.10;0.10;;;;;;;;;;5031862;28;20075;-83
2022/07/01 03:34:25;;;;;;;0.10;0.10;;;;;;;;;;5032622;28;20356;-83
2022/07/01 03:36:51;;;;;;;0.10;0.10;;;;;;;;;;5033226;28;20048;-83
2022/07/01 03:39:17;;;;;;;0.08;0.08;;;;;;;;;;5032599;28;20057;-82
2022/07/01 03:41:44;;;;;;;0.10;0.10;;;;;;;;;;5031566;28;20059;-81
2022/07/01 03:44:10;;;;;;;0.10;0.10;;;;;;;;;;5032526;28;20034;-81
2022/07/01 03:46:37;;;;;;;0.10;0.10;;;;;;;;;;5032657;28;20167;-81
2022/07/01 03:49:04;;;;;;;0.10;0.10;;;;;;;;;;5031169;28;20458;-83
2022/07/01 03:51:30;;;;;;;0.10;0.10;;;;;;;;;;5032635;28;20079;-82
2022/07/01 03:56:41;;;;;;;0.10;0.10;;;;;;;;;;5032455;28;20100;-82
2022/07/01 03:59:07;;;;;;;0.10;0.10;;;;;;;;;;5030817;28;20485;-80
2022/07/01 04:01:33;;;;;;;0.10;0.10;;;;;;;;;;5032410;28;20041;-82
2022/07/01 04:03:59;;;;;;;0.10;0.10;;;;;;;;;;5032357;28;20029;-82
2022/07/01 04:06:25;;;;;;;0.10;0.10;;;;;;;;;;5032122;28;20056;-82
2022/07/01 04:08:51;;;;;;;0.10;0.10;;;;;;;;;;5032554;28;20420;-82
2022/07/01 04:11:17;;;;;;;0.10;0.10;;;;;;;;;;5031871;28;20018;-82
2022/07/01 04:13:49;;;;;;;0.00;0.00;;;;;;;;;;5031917;28;20128;-81
2022/07/01 04:16:15;;;;;;;0.08;0.08;;;;;;;;;;5031857;28;20030;-81
2022/07/01 04:18:41;;;;;;;0.10;0.10;;;;;;;;;;5032071;28;20104;-81
2022/07/01 04:23:52;;;;;;;0.10;0.10;;;;;;;;;;5032843;28;20040;-82
2022/07/01 04:26:18;;;;;;;0.10;0.10;;;;;;;;;;5032284;28;20440;-82
2022/07/01 04:28:44;;;;;;;0.00;0.00;;;;;;;;;;5031930;28;20443;-80
2022/07/01 04:31:10;;;;;;;0.10;0.10;;;;;;;;;;5031508;28;20108;-81
2022/07/01 04:33:36;;;;;;;0.10;0.10;;;;;;;;;;5030380;28;20121;-80
2022/07/01 04:36:02;;;;;;;0.10;0.10;;;;;;;;;;5031706;28;20401;-78
2022/07/01 04:38:28;;;;;;;0.10;0.10;;;;;;;;;;5030129;28;20108;-80
2022/07/01 04:43:39;;;;;;;0.10;0.10;;;;;;;;;;5031715;28;20079;-82
2022/07/01 04:46:05;;;;;;;0.10;0.10;;;;;;;;;;5031098;28;20029;-77
2022/07/01 04:48:31;;;;;;;0.10;0.10;;;;;;;;;;5030274;28;20025;-79
2022/07/01 04:50:57;;;;;;;0.10;0.10;;;;;;;;;;5030387;28;20082;-83
2022/07/01 04:53:23;;;;;;;0.10;0.10;;;;;;;;;;5030274;28;20112;-81
2022/07/01 04:55:49;;;;;;;0.10;0.10;;;;;;;;;;5032232;28;20029;-83
2022/07/01 04:58:15;;;;;;;0.10;0.10;;;;;;;;;;5030113;28;20040;-83
2022/07/01 05:00:42;;;;;;;0.10;0.10;;;;;;;;;;5035574;28;20473;-81
2022/07/01 05:03:08;;;;;;;0.10;0.10;;;;;;;;;;5049524;28;20028;-82
2022/07/01 05:05:34;;;;;;;0.10;0.10;;;;;;;;;;5051187;28;20033;-82
2022/07/01 06:50:22;;;;;;;0.10;0.10;;;;;;;;;;5065914;27;20937;-80
2022/07/01 06:52:48;;;;;;;0.10;0.10;;;;;;;;;;5067412;28;20017;-82
2022/07/01 06:55:14;;;;;;;0.20;0.20;;;;;;;;;;5067365;28;20059;-85
2022/07/01 06:57:40;;;;;;;0.10;0.10;;;;;;;;;;5068232;28;20021;-84
2022/07/01 07:00:06;;;;;;;0.17;0.17;;;;;;;;;;5067164;28;20435;-80
2022/07/01 07:02:32;;;;;;;0.10;0.10;;;;;;;;;;5068569;28;20113;-83
2022/07/01 07:04:58;;;;;;;0.10;0.10;;;;;;;;;;5066316;28;20104;-82
2022/07/01 07:07:25;;;;;;;0.10;0.10;;;;;;;;;;5065650;28;20032;-87
2022/07/01 07:09:51;;;;;;;0.10;0.10;;;;;;;;;;5063650;28;20381;-83
2022/07/01 07:12:17;;;;;;;0.10;0.10;;;;;;;;;;5066300;28;20090;-82
2022/07/01 07:14:43;;;;;;;0.10;0.10;;;;;;;;;;5066987;28;20032;-83
2022/07/01 07:17:09;;;;;;;0.10;0.10;;;;;;;;;;5065798;28;20115;-82
2022/07/01 07:19:35;;;;;;;0.10;0.10;;;;;;;;;;5065454;28;20032;-83
2022/07/01 07:22:01;;;;;;;0.10;0.10;;;;;;;;;;5066272;28;20029;-78
2022/07/01 07:24:27;;;;;;;0.10;0.10;;;;;;;;;;5064325;28;20037;-79
2022/07/01 07:26:53;;;;;;;0.10;0.10;;;;;;;;;;5067120;28;20036;-81
2022/07/01 07:29:19;;;;;;;0.10;0.10;;;;;;;;;;5066192;28;20116;-80
2022/07/01 07:31:45;;;;;;;0.00;0.00;;;;;;;;;;5066419;28;20472;-83
2022/07/01 07:34:11;;;;;;;0.10;0.10;;;;;;;;;;5066072;28;20027;-80
2022/07/01 07:36:37;;;;;;;0.10;0.10;;;;;;;;;;5067332;28;20051;-82
2022/07/01 07:39:04;;;;;;;0.10;0.10;;;;;;;;;;5067486;28;20051;-80
2022/07/01 07:41:30;;;;;;;0.10;0.10;;;;;;;;;;5065634;28;20051;-85
2022/07/01 07:43:56;;;;;;;0.10;0.10;;;;;;;;;;5066538;28;20472;-80
2022/07/01 07:46:22;;;;;;;0.10;0.10;;;;;;;;;;5065146;28;20171;-79
2022/07/01 07:48:49;;;;;;;0.10;0.10;;;;;;;;;;5066410;28;20048;-79
2022/07/01 07:51:17;;;;;;;0.10;0.10;;;;;;;;;;5066530;28;20120;-81
2022/07/01 07:53:43;;;;;;;0.10;0.10;;;;;;;;;;5067146;28;20051;-80
2022/07/01 07:56:09;;;;;;;0.10;0.10;;;;;;;;;;5065692;28;20025;-80
2022/07/01 07:58:35;;;;;;;0.10;0.10;;;;;;;;;;5067116;28;20020;-79
2022/07/01 08:01:01;;;;;;;0.10;0.10;;;;;;;;;;5057534;28;20099;-80
2022/07/01 08:03:27;;;;;;;0.10;0.10;;;;;;;;;;5053872;28;20442;-78
2022/07/01 08:05:53;;;;;;;0.10;0.10;;;;;;;;;;5052451;28;20025;-78
2022/07/01 08:08:19;;;;;;;0.10;0.10;;;;;;;;;;5053325;28;20029;-79
2022/07/01 08:10:45;;;;;;;0.10;0.10;;;;;;;;;;5052891;28;20090;-79
2022/07/01 08:13:11;;;;;;;0.10;0.10;;;;;;;;;;5053413;28;20017;-78
2022/07/01 08:15:37;;;;;;;0.10;0.10;;;;;;;;;;5052874;28;20029;-78
2022/07/01 08:18:03;;;;;;;0.10;0.10;;;;;;;;;;5054192;28;20430;-78
2022/07/01 08:20:30;;;;;;;0.10;0.10;;;;;;;;;;5052661;28;20056;-78
2022/07/01 08:22:56;;;;;;;0.10;0.10;;;;;;;;;;5052758;28;20377;-78
2022/07/01 08:25:21;;;;;;;0.10;0.10;;;;;;;;;;5053218;28;20028;-78
2022/07/01 08:27:48;;;;;;;0.10;0.10;;;;;;;;;;5053475;28;20052;-78
2022/07/01 08:30:14;;;;;;;0.10;0.10;;;;;;;;;;5051716;28;20431;-78
2022/07/01 08:32:39;;;;;;;0.10;0.10;;;;;;;;;;5052061;28;20476;-78
2022/07/01 08:35:06;;;;;;;0.10;0.10;;;;;;;;;;5051197;28;20032;-78
2022/07/01 08:37:32;;;;;;;0.10;0.10;;;;;;;;;;5051661;28;20025;-78
2022/07/01 08:39:59;;;;;;;0.10;0.10;;;;;;;;;;5051359;28;20365;-77
2022/07/01 08:42:25;;;;;;;0.03;0.03;;;;;;;;;;5053092;28;20032;-78
2022/07/01 08:44:51;;;;;;;0.10;0.10;;;;;;;;;;5052879;28;20032;-78
2022/07/01 08:47:17;;;;;;;0.10;0.10;;;;;;;;;;5052722;28;20423;-77
2022/07/01 08:49:44;;;;;;;0.10;0.10;;;;;;;;;;5052673;28;20044;-80
2022/07/01 08:52:10;;;;;;;0.10;0.10;;;;;;;;;;5052630;28;20074;-79
2022/07/01 08:54:38;;;;;;;0.10;0.10;;;;;;;;;;5052183;28;20035;-78
2022/07/01 08:57:05;;;;;;;0.10;0.10;;;;;;;;;;5052515;28;20035;-78
2022/07/01 08:59:31;;;;;;;0.10;0.10;;;;;;;;;;5052893;28;20021;-79
2022/07/01 09:01:59;;;;;;;0.10;0.10;;;;;;;;;;5052985;28;20017;-80
2022/07/01 09:04:25;;;;;;;0.10;0.10;;;;;;;;;;5052724;28;20032;-80
2022/07/01 09:06:51;;;;;;;0.10;0.10;;;;;;;;;;5052696;28;20021;-79
2022/07/01 09:09:20;;;;;;;0.10;0.10;;;;;;;;;;5051112;28;20094;-80
2022/07/01 09:11:53;;;;;;;0.10;0.10;;;;;;;;;;5050842;28;20045;-79
2022/07/01 09:14:21;;;;;;;0.10;0.10;;;;;;;;;;5052254;28;20021;-78
2022/07/01 09:16:51;;;;;;;0.10;0.10;;;;;;;;;;5052403;28;20076;-78
2022/07/01 09:19:18;;;;;;;0.00;0.00;;;;;;;;;;5052222;28;20474;-79
2022/07/01 09:21:48;;;;;;;0.10;0.10;;;;;;;;;;5052291;28;20107;-79
2022/07/01 09:24:32;;;;;;;0.10;0.10;;;;;;;;;;5050999;28;20426;-79
2022/07/01 09:27:06;;;;;;;0.10;0.10;;;;;;;;;;5050855;28;20119;-77
2022/07/01 09:29:33;;;;;;;0.10;0.10;;;;;;;;;;5050443;28;20106;-77
2022/07/01 09:32:06;;;;;;;0.10;0.10;;;;;;;;;;5050729;28;20115;-78
2022/07/01 09:34:43;;;;;;;0.10;0.10;;;;;;;;;;5052341;28;20115;-87
2022/07/01 09:37:12;;;;;;;0.10;0.10;;;;;;;;;;5051807;28;20036;-79
2022/07/01 09:39:44;;;;;;;0.10;0.10;;;;;;;;;;5051737;28;20063;-80
2022/07/01 09:42:10;;;;;;;0.10;0.10;;;;;;;;;;5051740;28;20021;-79
2022/07/01 09:44:51;;;;;;;0.10;0.10;;;;;;;;;;5051595;28;20033;-83
2022/07/01 09:47:17;;;;;;;0.10;0.10;;;;;;;;;;5050247;28;20502;-83
2022/07/01 09:49:43;;;;;;;0.10;0.10;;;;;;;;;;5050293;28;20144;-82
2022/07/01 09:52:09;;;;;;;0.10;0.10;;;;;;;;;;5050332;28;20116;-81
2022/07/01 09:54:36;;;;;;;0.10;0.10;;;;;;;;;;5051994;28;20032;-83
2022/07/01 09:57:02;;;;;;;0.10;0.10;;;;;;;;;;5052282;28;20032;-83
2022/07/01 09:59:28;;;;;;;0.10;0.10;;;;;;;;;;5052157;28;20481;-84
2022/07/01 10:01:55;;;;;;;0.10;0.10;;;;;;;;;;5051353;28;20028;-81
2022/07/01 10:04:21;;;;;;;0.10;0.10;;;;;;;;;;5051407;28;20032;-82
2022/07/01 10:06:52;;;;;;;0.05;0.05;;;;;;;;;;5050667;28;20424;-82
2022/07/01 10:09:27;;;;;;;0.10;0.10;;;;;;;;;;5037394;28;20140;-83
2022/07/01 10:11:53;;;;;;;0.10;0.10;;;;;;;;;;5051416;28;20039;-83
2022/07/01 10:14:20;;;;;;;0.10;0.10;;;;;;;;;;5051001;28;20025;-83
2022/07/01 10:16:49;;;;;;;0.10;0.10;;;;;;;;;;5050562;28;20028;-84
2022/07/01 10:19:25;;;;;;;0.10;0.10;;;;;;;;;;5050955;28;20052;-83
2022/07/01 10:21:53;;;;;;;0.10;0.10;;;;;;;;;;5051431;28;20096;-81
2022/07/01 10:24:20;;;;;;;0.10;0.10;;;;;;;;;;5050621;28;20052;-80
2022/07/01 10:26:46;;;;;;;0.10;0.10;;;;;;;;;;5049790;28;20044;-79
2022/07/01 10:29:31;;;;;;;0.00;0.00;;;;;;;;;;5048089;28;20029;-79
2022/07/01 10:32:01;;;;;;;0.10;0.10;;;;;;;;;;5048499;28;20031;-77
2022/07/01 10:34:34;;;;;;;0.10;0.10;;;;;;;;;;5049227;28;20113;-78
2022/07/01 10:37:04;;;;;;;0.10;0.10;;;;;;;;;;5051248;28;20052;-83
2022/07/01 10:39:30;;;;;;;0.10;0.10;;;;;;;;;;5051503;28;20055;-85
2022/07/01 10:41:57;;;;;;;0.10;0.10;;;;;;;;;;5050029;28;20021;-85
2022/07/01 10:44:24;;;;;;;0.10;0.10;;;;;;;;;;5049643;28;20063;-80
2022/07/01 10:46:56;;;;;;;0.10;0.10;;;;;;;;;;5051125;28;20013;-79
2022/07/01 10:49:40;;;;;;;0.10;0.10;;;;;;;;;;5050686;28;20041;-79
2022/07/01 10:52:11;;;;;;;0.10;0.10;;;;;;;;;;5048977;28;20060;-79
2022/07/01 10:54:39;;;;;;;0.10;0.10;;;;;;;;;;5048072;28;20037;-81
2022/07/01 10:57:17;;;;;;;0.10;0.10;;;;;;;;;;5050444;28;20027;-84
2022/07/01 10:59:44;;;;;;;0.10;0.10;;;;;;;;;;5045013;28;20041;-81
2022/07/01 11:02:15;;;;;;;0.10;0.10;;;;;;;;;;5049013;28;20438;-84
2022/07/01 11:04:41;;;;;;;0.00;0.00;;;;;;;;;;5048548;28;20029;-84
2022/07/01 11:07:08;;;;;;;0.10;0.10;;;;;;;;;;5050531;28;20025;-81
2022/07/01 11:09:34;;;;;;;0.10;0.10;;;;;;;;;;5052523;28;20565;-83
2022/07/01 11:12:00;;;;;;;0.10;0.10;;;;;;;;;;5051192;28;20025;-85
2022/07/01 11:14:27;;;;;;;0.10;0.10;;;;;;;;;;5049453;28;20120;-80
2022/07/01 11:16:54;;;;;;;0.10;0.10;;;;;;;;;;5049920;28;20078;-83
2022/07/01 11:19:20;;;;;;;0.10;0.10;;;;;;;;;;5050725;28;20033;-82
2022/07/01 11:21:55;;;;;;;0.10;0.10;;;;;;;;;;5049052;28;20102;-83
2022/07/01 11:24:22;;;;;;;0.10;0.10;;;;;;;;;;5050654;28;20477;-83
2022/07/01 11:26:48;;;;;;;0.10;0.10;;;;;;;;;;5050292;28;20017;-83
2022/07/01 11:29:15;;;;;;;0.10;0.10;;;;;;;;;;5050233;28;20032;-82
2022/07/01 11:31:41;;;;;;;0.08;0.08;;;;;;;;;;5050356;28;20021;-82
2022/07/01 11:34:08;;;;;;;0.10;0.10;;;;;;;;;;5050141;28;20025;-84
2022/07/01 11:39:22;;;;;;;0.10;0.10;;;;;;;;;;5053842;28;20412;-78
2022/07/01 11:41:52;;;;;;;0.10;0.10;;;;;;;;;;5053545;28;20109;-79
2022/07/01 11:44:30;;;;;;;0.10;0.10;;;;;;;;;;5034484;28;20022;-78
2022/07/01 11:46:56;;;;;;;0.10;0.10;;;;;;;;;;5034256;28;20048;-83
2022/07/01 11:49:23;;;;;;;0.10;0.10;;;;;;;;;;5051508;28;20516;-81
2022/07/01 11:51:59;;;;;;;0.10;0.10;;;;;;;;;;5054097;28;20025;-80
2022/07/01 11:54:25;;;;;;;0.10;0.10;;;;;;;;;;5053963;28;20027;-81
2022/07/01 11:56:52;;;;;;;0.10;0.10;;;;;;;;;;5053177;28;20083;-79
2022/07/01 11:59:19;;;;;;;0.05;0.05;;;;;;;;;;5053332;28;20063;-80
2022/07/01 12:01:52;;;;;;;0.10;0.10;;;;;;;;;;5054364;28;20027;-85
2022/07/01 12:04:18;;;;;;;0.10;0.10;;;;;;;;;;5055256;28;20033;-92
2022/07/01 12:06:44;;;;;;;0.10;0.10;;;;;;;;;;5054434;28;20139;-88
2022/07/01 12:09:17;;;;;;;0.10;0.10;;;;;;;;;;5051015;28;20036;-90
2022/07/01 12:11:47;;;;;;;0.10;0.10;;;;;;;;;;5054527;28;20064;-92
2022/07/01 12:14:21;;;;;;;0.10;0.10;;;;;;;;;;5054300;28;20079;-91
2022/07/01 12:16:47;;;;;;;0.10;0.10;;;;;;;;;;5053817;28;20028;-91
2022/07/01 12:19:13;;;;;;;0.10;0.10;;;;;;;;;;5052283;28;20045;-89
2022/07/01 12:21:50;;;;;;;0.05;0.05;;;;;;;;;;5053828;28;20107;-85
2022/07/01 12:24:21;;;;;;;0.00;0.00;;;;;;;;;;5045184;28;20029;-90
2022/07/01 12:26:48;;;;;;;0.10;0.10;;;;;;;;;;5053032;28;20017;-84
2022/07/01 12:29:14;;;;;;;0.10;0.10;;;;;;;;;;5053889;28;20063;-83
2022/07/01 12:31:41;;;;;;;0.10;0.10;;;;;;;;;;5053305;28;20044;-85
2022/07/01 12:34:08;;;;;;;0.10;0.10;;;;;;;;;;5052662;28;20028;-81
2022/07/01 12:36:34;;;;;;;0.10;0.10;;;;;;;;;;5053368;28;20025;-81
2022/07/01 12:39:01;;;;;;;0.10;0.10;;;;;;;;;;5053771;28;20039;-83
2022/07/01 12:41:34;;;;;;;0.00;0.00;;;;;;;;;;5053147;28;20067;-82
2022/07/01 12:44:01;;;;;;;0.10;0.10;;;;;;;;;;5052798;28;20017;-84
2022/07/01 12:46:28;;;;;;;0.10;0.10;;;;;;;;;;5051740;28;20147;-85
2022/07/01 12:48:54;;;;;;;0.10;0.10;;;;;;;;;;5051935;28;20037;-85
2022/07/01 12:51:20;;;;;;;0.10;0.10;;;;;;;;;;5051453;28;20025;-88
2022/07/01 12:53:46;;;;;;;0.10;0.10;;;;;;;;;;5052745;28;20469;-82
2022/07/01 12:56:29;;;;;;;0.10;0.10;;;;;;;;;;5050837;28;20215;-84
2022/07/01 12:58:55;;;;;;;0.10;0.10;;;;;;;;;;5052026;28;20035;-83
2022/07/01 13:01:21;;;;;;;0.10;0.10;;;;;;;;;;5050037;28;20374;-87
2022/07/01 13:03:48;;;;;;;0.00;0.00;;;;;;;;;;5040762;28;20025;-92
2022/07/01 13:06:14;;;;;;;0.45;0.45;;;;;;;;;;5040556;28;20171;-83
2022/07/01 13:08:40;;;;;;;0.10;0.10;;;;;;;;;;5049519;28;20097;-91
2022/07/01 13:11:06;;;;;;;0.10;0.10;;;;;;;;;;5044992;28;20108;-86
2022/07/01 13:13:33;;;;;;;0.10;0.10;;;;;;;;;;5035690;28;20433;-91
2022/07/01 13:15:59;;;;;;;0.10;0.10;;;;;;;;;;5034861;28;20040;-80
2022/07/01 13:18:25;;;;;;;0.10;0.10;;;;;;;;;;5032985;28;20026;-84
2022/07/01 13:20:51;;;;;;;0.10;0.10;;;;;;;;;;5050903;28;20581;-82
2022/07/01 13:23:17;;;;;;;0.10;0.10;;;;;;;;;;5050801;28;20048;-81
2022/07/01 13:25:43;;;;;;;0.10;0.10;;;;;;;;;;5047248;28;20033;-82
2022/07/01 13:28:10;;;;;;;0.10;0.10;;;;;;;;;;5051167;28;20025;-83
2022/07/01 13:30:38;;;;;;;0.10;0.10;;;;;;;;;;5052450;28;20029;-87
2022/07/01 13:33:05;;;;;;;0.10;0.10;;;;;;;;;;5052889;28;20051;-84
2022/07/01 13:35:31;;;;;;;0.03;0.03;;;;;;;;;;5052905;28;20035;-76
2022/07/01 13:37:57;;;;;;;0.10;0.10;;;;;;;;;;5051880;28;20017;-83
2022/07/01 13:40:23;;;;;;;0.10;0.10;;;;;;;;;;5051928;28;20098;-84
2022/07/01 13:42:49;;;;;;;0.00;0.00;;;;;;;;;;5050692;28;20017;-86
2022/07/01 13:45:15;;;;;;;0.10;0.10;;;;;;;;;;5051052;28;20033;-84
2022/07/01 13:47:41;;;;;;;0.10;0.10;;;;;;;;;;5051665;28;20123;-84
2022/07/01 13:50:07;;;;;;;0.10;0.10;;;;;;;;;;5050000;28;20036;-85
2022/07/01 13:52:33;;;;;;;0.10;0.10;;;;;;;;;;5051442;28;20060;-83
2022/07/01 13:54:59;;;;;;;0.10;0.10;;;;;;;;;;5052250;28;20018;-85
2022/07/01 13:57:25;;;;;;;0.10;0.10;;;;;;;;;;5051468;28;20033;-87
2022/07/01 13:59:52;;;;;;;0.10;0.10;;;;;;;;;;5050096;28;20071;-85
2022/07/01 14:02:18;;;;;;;0.10;0.10;;;;;;;;;;5051860;28;20025;-89
2022/07/01 14:04:45;;;;;;;0.10;0.10;;;;;;;;;;5051646;28;20480;-83
2022/07/01 14:07:11;;;;;;;0.10;0.10;;;;;;;;;;5049683;28;20052;-83
2022/07/01 14:09:38;;;;;;;0.10;0.10;;;;;;;;;;5050916;28;20071;-85
2022/07/01 14:12:04;;;;;;;0.10;0.10;;;;;;;;;;5050905;28;20044;-84
2022/07/01 14:14:30;;;;;;;0.10;0.10;;;;;;;;;;5051148;28;20519;-84
2022/07/01 14:16:56;;;;;;;0.10;0.10;;;;;;;;;;5050897;28;20059;-81
2022/07/01 14:19:22;;;;;;;0.10;0.10;;;;;;;;;;5051006;28;20029;-83
2022/07/01 14:21:49;;;;;;;0.10;0.10;;;;;;;;;;5051533;28;20028;-84
2022/07/01 14:24:15;;;;;;;0.00;0.00;;;;;;;;;;5051189;28;20025;-83
2022/07/01 14:26:41;;;;;;;0.10;0.10;;;;;;;;;;5050074;28;20063;-83
2022/07/01 14:29:07;;;;;;;0.10;0.10;;;;;;;;;;5049480;28;20032;-82
2022/07/01 14:31:33;;;;;;;0.10;0.10;;;;;;;;;;5051495;28;20037;-83
2022/07/01 14:33:59;;;;;;;0.00;0.00;;;;;;;;;;5051252;28;20021;-84
2022/07/01 14:36:25;;;;;;;0.10;0.10;;;;;;;;;;5051021;28;20480;-82
2022/07/01 14:38:51;;;;;;;0.03;0.03;;;;;;;;;;5051112;28;20029;-85
2022/07/01 14:41:17;;;;;;;0.10;0.10;;;;;;;;;;5049753;28;20545;-83
2022/07/01 14:43:44;;;;;;;0.10;0.10;;;;;;;;;;5050713;28;20107;-79
2022/07/01 14:46:13;;;;;;;0.08;0.08;;;;;;;;;;5051449;28;20021;-83
2022/07/01 14:48:40;;;;;;;0.10;0.10;;;;;;;;;;5049674;28;20473;-82
2022/07/01 14:51:06;;;;;;;0.10;0.10;;;;;;;;;;5048118;28;20028;-80
2022/07/01 14:53:32;;;;;;;0.10;0.10;;;;;;;;;;5049099;28;20492;-80
2022/07/01 14:55:58;;;;;;;0.10;0.10;;;;;;;;;;5049474;28;20025;-81
2022/07/01 14:58:24;;;;;;;0.10;0.10;;;;;;;;;;5049851;28;20060;-81
2022/07/01 15:00:50;;;;;;;0.10;0.10;;;;;;;;;;5050201;28;20025;-81
2022/07/01 15:03:16;;;;;;;0.10;0.10;;;;;;;;;;5049846;28;20068;-80
2022/07/01 15:05:43;;;;;;;0.10;0.10;;;;;;;;;;5050235;28;20040;-80
2022/07/01 15:08:09;;;;;;;0.10;0.10;;;;;;;;;;5048507;28;20685;-81
2022/07/01 16:23:17;;;;;;;;;;;;;;;;;;5089325;27;20426;-81
2022/07/01 16:25:44;;;;;;;0.10;0.10;;;;;;;;;;5088758;28;19908;-78
2022/07/01 16:28:11;;;;;;;0.10;0.10;;;;;;;;;;5088550;28;20078;-85
2022/07/01 16:30:38;;;;;;;0.10;0.10;;;;;;;;;;5089031;28;20492;-87
2022/07/01 16:33:04;;;;;;;0.10;0.10;;;;;;;;;;5089312;28;20115;-84
2022/07/01 16:35:37;;;;;;;0.10;0.10;;;;;;;;;;5090231;28;20085;-85
2022/07/01 16:38:06;;;;;;;0.10;0.10;;;;;;;;;;5108609;28;20033;-84
2022/07/01 16:40:35;;;;;;;0.10;0.10;;;;;;;;;;5094328;28;20030;-86
2022/07/01 16:43:02;;;;;;;0.10;0.10;;;;;;;;;;5089059;28;20491;-82
2022/07/01 16:45:35;;;;;;;0.10;0.10;;;;;;;;;;5101042;28;20028;-84
2022/07/01 16:48:03;;;;;;;0.10;0.10;;;;;;;;;;5108921;28;20032;-85
2022/07/01 16:50:34;;;;;;;0.10;0.10;;;;;;;;;;5108576;28;20027;-82
2022/07/01 16:53:02;;;;;;;0.10;0.10;;;;;;;;;;5099096;28;20115;-79
2022/07/01 16:55:29;;;;;;;0.10;0.10;;;;;;;;;;5083771;28;20021;-85
2022/07/01 16:57:58;;;;;;;0.10;0.10;;;;;;;;;;5077360;28;20027;-80
2022/07/01 17:00:25;;;;;;;0.10;0.10;;;;;;;;;;5088000;28;20427;-80
2022/07/01 17:02:52;;;;;;;0.10;0.10;;;;;;;;;;5088158;28;20031;-80
2022/07/01 17:05:18;;;;;;;0.10;0.10;;;;;;;;;;5087999;28;20025;-81
2022/07/01 17:07:45;;;;;;;0.10;0.10;;;;;;;;;;5085725;28;20111;-80
2022/07/01 17:10:15;;;;;;;0.10;0.10;;;;;;;;;;5086228;28;20028;-83
2022/07/01 17:12:43;;;;;;;0.10;0.10;;;;;;;;;;5087010;28;20023;-87
2022/07/01 17:15:10;;;;;;;0.10;0.10;;;;;;;;;;5085752;28;20077;-88
2022/07/01 17:17:36;;;;;;;0.10;0.10;;;;;;;;;;5085228;28;20107;-82
2022/07/01 17:20:03;;;;;;;0.10;0.10;;;;;;;;;;5088358;28;20443;-81
2022/07/01 17:22:42;;;;;;;0.10;0.10;;;;;;;;;;5085280;28;20043;-84
2022/07/01 17:25:23;;;;;;;0.10;0.10;;;;;;;;;;5085508;28;20028;-88
2022/07/01 17:27:56;;;;;;;0.10;0.10;;;;;;;;;;5087723;28;20047;-91
2022/07/01 17:30:23;;;;;;;0.10;0.10;;;;;;;;;;5087636;28;20020;-91
2022/07/01 17:32:51;;;;;;;0.10;0.10;;;;;;;;;;5085309;28;20093;-92
2022/07/01 17:35:18;;;;;;;0.10;0.10;;;;;;;;;;5073477;28;20159;-87
2022/07/01 17:37:47;;;;;;;0.10;0.10;;;;;;;;;;5073734;28;20027;-86
2022/07/01 17:40:13;;;;;;;0.10;0.10;;;;;;;;;;5072937;28;20029;-91
2022/07/01 17:42:40;;;;;;;0.10;0.10;;;;;;;;;;5073608;28;20553;-91
2022/07/01 17:45:07;;;;;;;0.10;0.10;;;;;;;;;;5074900;28;20107;-90
2022/07/01 17:47:35;;;;;;;0.10;0.10;;;;;;;;;;5076896;28;20024;-91
2022/07/01 17:50:01;;;;;;;0.10;0.10;;;;;;;;;;5088902;28;20035;-90